createdAt,value
2022-11-28T04:09:42.430Z,107.57
2022-11-28T04:12:16.108Z,96.50
2022-11-28T04:14:50.196Z,110.07
2022-11-28T04:17:26.394Z,102.03
2022-11-28T04:19:59.088Z,107.50
2022-11-28T04:22:32.120Z,109.77
2022-11-28T04:25:05.485Z,107.97
2022-11-28T04:27:38.830Z,106.90
2022-11-28T04:30:09.177Z,113.63
2022-11-28T04:32:42.508Z,103.03
2022-11-28T04:35:13.973Z,107.40
2022-11-28T04:37:48.676Z,125.70
2022-11-28T04:40:20.217Z,108.93
2022-11-28T04:42:53.345Z,121.00
2022-11-28T04:45:27.654Z,108.77
2022-11-28T04:47:56.132Z,108.43
2022-11-28T04:50:26.623Z,106.20
2022-11-28T04:52:58.875Z,101.13
2022-11-28T04:55:34.689Z,110.60
2022-11-28T04:58:08.305Z,102.60
2022-11-28T05:00:39.037Z,104.20
2022-11-28T05:03:07.736Z,98.53
2022-11-28T05:05:45.779Z,105.20
2022-11-28T05:08:14.479Z,105.80
2022-11-28T05:10:44.082Z,107.23
2022-11-28T05:13:12.263Z,107.40
2022-11-28T05:15:40.463Z,98.33
2022-11-28T05:18:08.678Z,100.60
2022-11-28T05:20:37.608Z,104.17
2022-11-28T05:23:05.733Z,94.50
2022-11-28T05:25:34.138Z,108.27
2022-11-28T05:28:04.191Z,95.47
2022-11-28T05:30:32.338Z,102.10
2022-11-28T05:33:00.733Z,98.83
2022-11-28T05:35:28.815Z,101.60
2022-11-28T05:37:56.966Z,106.23
2022-11-28T05:40:25.160Z,106.47
2022-11-28T05:42:53.286Z,104.23
2022-11-28T05:45:22.730Z,106.67
2022-11-28T05:47:50.794Z,103.93
2022-11-28T05:50:19.087Z,101.20
2022-11-28T05:52:47.111Z,99.00
2022-11-28T05:55:15.311Z,98.27
2022-11-28T05:57:43.382Z,104.90
2022-11-28T06:00:14.439Z,95.67
2022-11-28T06:02:44.042Z,93.27
2022-11-28T06:05:40.360Z,95.83
2022-11-28T06:08:00.341Z,89.87
2022-11-28T06:10:29.052Z,105.50
2022-11-28T06:12:57.142Z,94.33
2022-11-28T06:15:25.276Z,90.07
2022-11-28T06:17:54.767Z,85.60
2022-11-28T06:20:22.926Z,93.33
2022-11-28T06:22:51.004Z,92.80
2022-11-28T06:25:19.260Z,93.73
2022-11-28T06:27:47.281Z,92.27
2022-11-28T06:30:15.860Z,93.97
2022-11-28T06:32:43.957Z,100.43
2022-11-28T06:35:13.406Z,99.67
2022-11-28T06:37:41.548Z,103.27
2022-11-28T06:40:09.867Z,94.50
2022-11-28T06:42:38.679Z,101.27
2022-11-28T06:45:08.266Z,88.23
2022-11-28T06:47:36.512Z,93.20
2022-11-28T06:50:05.194Z,98.03
2022-11-28T06:52:34.879Z,92.37
2022-11-28T06:55:03.126Z,97.63
2022-11-28T06:57:32.745Z,97.10
2022-11-28T07:00:00.819Z,85.57
2022-11-28T07:02:28.994Z,100.30
2022-11-28T07:04:57.431Z,101.40
2022-11-28T07:07:26.088Z,95.03
2022-11-28T07:09:55.635Z,98.40
2022-11-28T07:12:23.904Z,91.43
2022-11-28T07:14:51.988Z,83.17
2022-11-28T07:17:20.421Z,84.47
2022-11-28T07:19:54.699Z,89.53
2022-11-28T07:22:23.181Z,96.97
2022-11-28T07:24:52.150Z,76.70
2022-11-28T07:27:21.750Z,92.67
2022-11-28T07:29:49.827Z,93.80
2022-11-28T07:32:17.897Z,99.97
2022-11-28T07:34:49.952Z,91.57
2022-11-28T07:37:18.376Z,94.20
2022-11-28T07:39:46.558Z,86.07
2022-11-28T07:42:17.650Z,91.20
2022-11-28T07:44:59.262Z,86.00
2022-11-28T07:47:27.375Z,92.93
2022-11-28T07:49:55.399Z,95.23
2022-11-28T07:52:23.430Z,79.80
2022-11-28T07:54:51.496Z,86.57
2022-11-28T07:57:19.683Z,73.20
2022-11-28T07:59:47.756Z,77.27
2022-11-28T08:02:17.545Z,77.30
2022-11-28T08:04:50.596Z,77.80
2022-11-28T08:07:22.494Z,76.03
2022-11-28T08:09:50.610Z,72.53
2022-11-28T08:12:18.813Z,76.20
2022-11-28T08:14:46.942Z,79.30
2022-11-28T08:17:16.674Z,79.83
2022-11-28T08:19:44.812Z,75.20
2022-11-28T08:22:13.038Z,71.20
2022-11-28T08:24:41.257Z,72.87
2022-11-28T08:27:09.499Z,74.23
2022-11-28T08:29:37.566Z,73.40
2022-11-28T08:32:06.190Z,76.53
2022-11-28T08:34:35.759Z,69.80
2022-11-28T08:37:03.896Z,72.47
2022-11-28T08:39:32.661Z,69.77
2022-11-28T08:42:00.723Z,69.07
2022-11-28T08:44:30.720Z,69.50
2022-11-28T08:46:59.024Z,73.90
2022-11-28T08:49:27.394Z,70.20
2022-11-28T08:51:57.033Z,67.67
2022-11-28T08:54:25.177Z,65.07
2022-11-28T08:56:53.296Z,68.93
2022-11-28T08:59:21.483Z,66.10
2022-11-28T09:01:49.971Z,64.73
2022-11-28T09:04:18.659Z,66.73
2022-11-28T09:06:47.052Z,64.13
2022-11-28T09:09:16.806Z,65.57
2022-11-28T09:11:45.051Z,58.25
2022-11-28T09:14:13.739Z,65.50
2022-11-28T09:16:42.481Z,63.53
2022-11-28T09:19:10.859Z,64.35
2022-11-28T09:21:39.114Z,50.83
2022-11-28T09:24:08.463Z,60.20
2022-11-28T09:26:38.069Z,61.60
2022-11-28T09:29:06.749Z,60.50
2022-11-28T09:31:34.955Z,58.13
2022-11-28T09:34:04.127Z,56.60
2022-11-28T09:36:33.823Z,60.53
2022-11-28T09:39:02.104Z,52.90
2022-11-28T09:41:56.877Z,55.15
2022-11-28T09:44:28.451Z,58.78
2022-11-28T09:47:00.053Z,49.13
2022-11-28T09:49:40.689Z,54.97
2022-11-28T09:52:22.801Z,52.97
2022-11-28T09:54:58.630Z,55.40
2022-11-28T09:57:35.557Z,54.67
2022-11-28T10:00:04.927Z,51.47
2022-11-28T10:02:47.648Z,56.35
2022-11-28T10:05:23.409Z,54.42
2022-11-28T10:08:06.151Z,55.78
2022-11-28T10:10:43.379Z,53.93
2022-11-28T10:13:20.410Z,52.20
2022-11-28T10:15:58.608Z,47.00
2022-11-28T10:18:36.219Z,53.03
2022-11-28T10:21:11.419Z,48.33
2022-11-28T10:23:44.256Z,53.35
2022-11-28T10:26:19.388Z,48.17
2022-11-28T10:28:52.420Z,47.45
2022-11-28T10:31:28.415Z,46.58
2022-11-28T10:34:00.274Z,42.05
2022-11-28T10:36:32.896Z,47.50
2022-11-28T10:39:09.974Z,44.55
2022-11-28T10:41:46.859Z,45.33
2022-11-28T10:44:24.835Z,42.60
2022-11-28T10:47:03.430Z,47.92
2022-11-28T10:49:46.035Z,52.72
2022-11-28T10:52:22.433Z,50.42
2022-11-28T10:55:14.381Z,52.35
2022-11-28T10:57:52.987Z,52.08
2022-11-28T11:00:22.841Z,53.97
2022-11-28T11:02:52.407Z,50.03
2022-11-28T11:05:27.093Z,47.10
2022-11-28T11:07:58.507Z,52.20
2022-11-28T11:10:31.390Z,50.60
2022-11-28T11:13:00.572Z,56.20
2022-11-28T11:15:33.702Z,61.08
2022-11-28T11:18:05.776Z,54.45
2022-11-28T11:20:37.569Z,59.05
2022-11-28T11:23:14.837Z,64.10
2022-11-28T11:25:49.528Z,53.53
2022-11-28T11:28:46.127Z,59.67
2022-11-28T11:31:23.119Z,65.85
2022-11-28T11:33:54.449Z,59.55
2022-11-28T11:36:33.493Z,57.13
2022-11-28T11:39:20.087Z,64.03
2022-11-28T11:41:50.036Z,59.97
2022-11-28T11:44:34.495Z,60.73
2022-11-28T11:47:07.896Z,60.67
2022-11-28T11:49:37.558Z,58.10
2022-11-28T11:52:08.375Z,62.75
2022-11-28T11:54:36.476Z,55.22
2022-11-28T11:57:31.232Z,59.95
2022-11-28T11:59:56.750Z,64.45
2022-11-28T12:02:33.638Z,62.78
2022-11-28T12:05:06.618Z,54.37
2022-11-28T12:07:40.304Z,66.57
2022-11-28T12:10:14.191Z,56.57
2022-11-28T12:12:42.531Z,61.50
2022-11-28T12:15:18.472Z,56.58
2022-11-28T12:18:09.940Z,53.63
2022-11-28T12:20:50.843Z,57.65
2022-11-28T12:23:35.563Z,51.75
2022-11-28T12:26:12.230Z,55.42
2022-11-28T12:28:57.351Z,53.50
2022-11-28T12:31:33.327Z,54.37
2022-11-28T12:34:17.627Z,56.83
2022-11-28T12:36:56.636Z,48.50
2022-11-28T12:39:37.032Z,50.60
2022-11-28T12:42:34.254Z,49.13
2022-11-28T12:45:23.463Z,50.15
2022-11-28T12:48:01.792Z,53.37
2022-11-28T12:50:36.850Z,52.50
2022-11-28T12:53:30.294Z,49.05
2022-11-28T12:56:10.572Z,54.67
2022-11-28T12:58:46.040Z,54.97
2022-11-28T13:01:32.210Z,48.03
2022-11-28T13:04:09.097Z,49.03
2022-11-28T13:06:48.048Z,51.57
2022-11-28T13:09:32.051Z,40.00
2022-11-28T13:12:16.481Z,50.13
2022-11-28T13:14:53.837Z,49.30
2022-11-28T13:17:35.833Z,45.60
2022-11-28T13:20:12.495Z,44.17
2022-11-28T13:22:54.687Z,48.40
2022-11-28T13:25:29.915Z,44.53
2022-11-28T13:28:08.226Z,56.37
2022-11-28T13:30:43.883Z,42.97
2022-11-28T13:33:33.090Z,43.83
2022-11-28T13:36:02.439Z,50.20
2022-11-28T13:39:01.639Z,47.30
2022-11-28T13:42:06.437Z,49.33
2022-11-28T13:44:32.551Z,50.23
2022-11-28T13:47:15.057Z,50.90
2022-11-28T13:49:43.223Z,53.43
2022-11-28T13:52:34.227Z,50.30
2022-11-28T13:55:03.697Z,58.93
2022-11-28T13:57:37.864Z,55.63
2022-11-28T14:00:23.530Z,59.73
2022-11-28T14:02:56.349Z,55.73
2022-11-28T14:05:29.423Z,49.93
2022-11-28T14:07:58.156Z,59.93
2022-11-28T14:10:48.661Z,65.67
2022-11-28T14:13:35.981Z,73.70
2022-11-28T14:16:17.702Z,72.60
2022-11-28T14:19:10.943Z,70.23
2022-11-28T14:21:50.819Z,62.33
2022-11-28T14:24:28.540Z,64.00
2022-11-28T14:27:03.603Z,65.13
2022-11-28T14:29:37.208Z,69.97
2022-11-28T14:32:28.996Z,66.10
2022-11-28T14:34:55.985Z,64.27
2022-11-28T14:37:57.843Z,65.77
2022-11-28T14:41:06.375Z,71.50
2022-11-28T14:43:38.993Z,63.07
2022-11-28T14:46:34.905Z,64.53
2022-11-28T14:49:23.175Z,65.30
2022-11-28T14:52:41.503Z,58.07
2022-11-28T14:55:21.833Z,54.77
2022-11-28T14:57:59.130Z,63.57
2022-11-28T15:00:32.875Z,64.13
2022-11-28T15:03:15.039Z,60.37
2022-11-28T15:05:47.153Z,62.27
2022-11-28T15:08:35.482Z,58.43
2022-11-28T15:11:25.895Z,63.47
2022-11-28T15:14:08.645Z,72.27
2022-11-28T15:16:46.617Z,62.47
2022-11-28T15:19:25.802Z,62.03
2022-11-28T15:21:56.155Z,66.47
2022-11-28T15:24:27.406Z,70.90
2022-11-28T15:26:58.194Z,65.30
2022-11-28T15:29:28.404Z,63.17
2022-11-28T15:31:59.701Z,71.53
2022-11-28T15:34:30.973Z,61.07
2022-11-28T15:37:00.971Z,65.17
2022-11-28T15:39:35.120Z,61.80
2022-11-28T15:42:06.292Z,70.20
2022-11-28T15:44:36.559Z,79.33
2022-11-28T15:47:06.827Z,66.93
2022-11-28T15:49:38.661Z,57.60
2022-11-28T15:52:06.808Z,60.07
2022-11-28T15:54:38.732Z,62.67
2022-11-28T15:57:08.980Z,60.47
2022-11-28T15:59:40.202Z,61.10
2022-11-28T16:02:17.378Z,62.73
2022-11-28T16:04:46.441Z,55.87
2022-11-28T16:07:16.888Z,56.80
2022-11-28T16:09:56.239Z,61.73
2022-11-28T16:12:25.458Z,62.80
2022-11-28T16:14:58.784Z,59.43
2022-11-28T16:17:32.602Z,49.83
2022-11-28T16:20:02.295Z,58.30
2022-11-28T16:22:34.800Z,48.17
2022-11-28T16:25:14.301Z,45.93
2022-11-28T16:27:45.738Z,46.90
2022-11-28T16:30:48.419Z,56.07
2022-11-28T16:33:38.077Z,49.10
2022-11-28T16:36:19.131Z,56.10
2022-11-28T16:38:48.413Z,57.53
2022-11-28T16:41:18.466Z,46.67
2022-11-28T16:43:50.073Z,61.03
2022-11-28T16:46:22.204Z,54.97
2022-11-28T16:48:56.552Z,53.70
2022-11-28T16:51:32.694Z,45.50
2022-11-28T16:54:01.649Z,50.60
2022-11-28T16:56:44.898Z,45.83
2022-11-28T16:59:14.834Z,44.90
2022-11-28T17:01:44.947Z,43.93
2022-11-28T17:04:23.059Z,44.87
2022-11-28T17:06:51.656Z,45.20
2022-11-28T17:09:20.534Z,46.93
2022-11-28T17:11:59.261Z,48.00
2022-11-28T17:14:27.395Z,50.07
2022-11-28T17:16:55.519Z,49.83
2022-11-28T17:19:25.665Z,50.07
2022-11-28T17:21:56.070Z,48.23
2022-11-28T17:24:26.435Z,57.63
2022-11-28T17:26:55.348Z,48.23
2022-11-28T17:29:25.299Z,58.37
2022-11-28T17:31:55.324Z,52.33
2022-11-28T17:34:26.491Z,53.23
2022-11-28T17:36:55.112Z,56.40
2022-11-28T17:39:23.343Z,47.93
2022-11-28T17:41:51.736Z,45.60
2022-11-28T17:44:21.346Z,54.20
2022-11-28T17:46:49.674Z,53.70
2022-11-28T17:49:18.682Z,44.23
2022-11-28T17:51:48.482Z,51.80
2022-11-28T17:54:19.648Z,57.00
2022-11-28T17:56:48.833Z,55.17
2022-11-28T17:59:22.136Z,50.97
2022-11-28T18:01:50.813Z,56.67
2022-11-28T18:04:24.801Z,60.93
2022-11-28T18:06:54.427Z,55.43
2022-11-28T18:09:22.731Z,56.93
2022-11-28T18:11:51.755Z,55.97
2022-11-28T18:14:20.193Z,48.73
2022-11-28T18:16:49.415Z,50.33
2022-11-28T18:19:17.946Z,48.63
2022-11-28T18:21:46.084Z,54.30
2022-11-28T18:24:15.629Z,52.97
2022-11-28T18:26:43.835Z,49.83
2022-11-28T18:29:12.117Z,53.80
2022-11-28T18:31:40.224Z,50.23
2022-11-28T18:34:09.590Z,53.40
2022-11-28T18:36:39.576Z,46.13
2022-11-28T18:39:14.025Z,49.93
2022-11-28T18:41:43.623Z,47.27
2022-11-28T18:44:12.884Z,49.37
2022-11-28T18:46:41.220Z,51.40
2022-11-28T18:49:16.617Z,51.27
2022-11-28T18:51:44.948Z,46.63
2022-11-28T18:54:19.217Z,46.93
2022-11-28T18:56:50.756Z,50.73
2022-11-28T18:59:19.002Z,53.77
2022-11-28T19:01:47.281Z,54.17
2022-11-28T19:04:16.932Z,54.60
2022-11-28T19:06:48.374Z,51.77
2022-11-28T19:09:18.709Z,49.23
2022-11-28T19:11:47.957Z,57.67
2022-11-28T19:14:19.251Z,57.37
2022-11-28T19:16:49.643Z,55.40
2022-11-28T19:19:20.154Z,56.00
2022-11-28T19:21:50.518Z,50.70
2022-11-28T19:24:19.802Z,59.03
2022-11-28T19:26:48.221Z,52.20
2022-11-28T19:29:21.948Z,51.93
2022-11-28T19:31:50.321Z,53.23
2022-11-28T19:34:19.898Z,44.57
2022-11-28T19:36:50.308Z,52.00
2022-11-28T19:39:22.198Z,47.57
2022-11-28T19:41:51.683Z,48.37
2022-11-28T19:44:24.089Z,48.47
2022-11-28T19:46:53.615Z,49.50
2022-11-28T19:49:23.529Z,51.40
2022-11-28T19:51:52.506Z,46.67
2022-11-28T19:54:21.022Z,49.00
2022-11-28T19:56:50.248Z,45.53
2022-11-28T19:59:20.920Z,44.17
2022-11-28T20:01:50.140Z,48.57
2022-11-28T20:04:19.501Z,49.07
2022-11-28T20:06:47.936Z,46.30
2022-11-28T20:09:16.257Z,52.90
2022-11-28T20:11:45.775Z,45.40
2022-11-28T20:14:16.984Z,44.23
2022-11-28T20:16:47.787Z,44.77
2022-11-28T20:19:17.892Z,44.20
2022-11-28T20:21:46.718Z,46.10
2022-11-28T20:24:19.157Z,42.27
2022-11-28T20:26:48.086Z,40.97
2022-11-28T20:29:18.387Z,45.97
2022-11-28T20:31:50.206Z,41.37
2022-11-28T20:34:19.349Z,38.73
2022-11-28T20:36:52.878Z,40.80
2022-11-28T20:39:21.500Z,42.73
2022-11-28T20:41:49.875Z,47.23
2022-11-28T20:44:18.975Z,38.10
2022-11-28T20:46:50.219Z,42.03
2022-11-28T20:49:18.767Z,39.00
2022-11-28T20:51:47.407Z,38.93
2022-11-28T20:54:15.897Z,36.87
2022-11-28T20:57:19.874Z,42.13
2022-11-28T20:59:33.385Z,37.87
2022-11-28T21:02:02.943Z,33.90
2022-11-28T21:04:31.166Z,32.67
2022-11-28T21:06:59.227Z,37.77
2022-11-28T21:09:27.376Z,34.70
2022-11-28T21:11:59.493Z,37.88
2022-11-28T21:14:29.153Z,33.73
2022-11-28T21:16:58.510Z,36.07
2022-11-28T21:19:28.766Z,34.23
2022-11-28T21:21:57.509Z,42.77
2022-11-28T21:24:25.760Z,36.63
2022-11-28T21:26:54.949Z,33.50
2022-11-28T21:29:24.489Z,38.97
2022-11-28T21:31:52.870Z,40.47
2022-11-28T21:34:22.456Z,33.43
2022-11-28T21:36:51.990Z,33.03
2022-11-28T21:39:22.135Z,35.53
2022-11-28T21:41:54.536Z,38.70
2022-11-28T21:44:22.714Z,38.60
2022-11-28T21:46:50.793Z,36.53
2022-11-28T21:49:19.519Z,38.50
2022-11-28T21:51:47.636Z,37.37
2022-11-28T21:54:17.671Z,35.10
2022-11-28T21:56:47.420Z,39.10
2022-11-28T21:59:16.672Z,36.63
2022-11-28T22:01:46.492Z,36.10
2022-11-28T22:04:14.704Z,35.53
2022-11-28T22:06:43.152Z,32.57
2022-11-28T22:09:11.330Z,32.77
2022-11-28T22:11:41.948Z,34.43
2022-11-28T22:14:12.372Z,33.40
2022-11-28T22:16:40.590Z,35.83
2022-11-28T22:19:10.021Z,36.13
2022-11-28T22:21:56.325Z,33.10
2022-11-28T22:24:25.665Z,35.87
2022-11-28T22:26:57.258Z,30.33
2022-11-28T22:29:25.507Z,29.63
2022-11-28T22:31:55.018Z,29.27
2022-11-28T22:34:24.352Z,32.27
2022-11-28T22:36:53.187Z,32.97
2022-11-28T22:39:22.554Z,33.50
2022-11-28T22:41:50.656Z,30.23
2022-11-28T22:44:22.061Z,29.77
2022-11-28T22:46:50.269Z,29.63
2022-11-28T22:49:19.555Z,29.30
2022-11-28T22:51:48.920Z,31.87
2022-11-28T22:54:17.475Z,33.47
2022-11-28T22:56:45.577Z,29.97
2022-11-28T22:59:14.852Z,29.67
2022-11-28T23:01:44.827Z,30.27
